Time;durP1;ratioP1;P1;durP2;ratioP2;P2;SDS_P1;SDS_P2;PMS_P1;PMS_P2;Temp;Humidity;BMP_temperature;BMP_pressure;BME280_temperature;BME280_humidity;BME280_pressure;Samples;Min_cycle;Max_cycle;Signal;HPM_P1;HPM_P2
2021/01/24 00:01:07;;;;;;;7.47;5.18;;;2.60;95.70;;;;;;5124700;27;27407;-51
2021/01/24 00:03:52;;;;;;;7.10;4.63;;;2.60;95.70;;;;;;5124442;27;27392;-52
2021/01/24 00:06:36;;;;;;;8.30;4.03;;;2.60;95.80;;;;;;5124768;27;27390;-51
2021/01/24 00:09:21;;;;;;;6.55;4.68;;;2.60;95.80;;;;;;5124148;27;27413;-52
2021/01/24 00:12:05;;;;;;;6.10;4.32;;;2.60;95.90;;;;;;5124454;27;27461;-51
2021/01/24 00:14:50;;;;;;;7.30;3.78;;;2.60;95.80;;;;;;5124714;27;27396;-52
2021/01/24 00:17:34;;;;;;;6.90;3.30;;;2.60;95.90;;;;;;5124166;27;27474;-50
2021/01/24 00:20:19;;;;;;;7.85;3.67;;;2.60;95.90;;;;;;5121027;27;27426;-51
2021/01/24 00:23:03;;;;;;;6.50;3.95;;;2.60;95.90;;;;;;5124707;27;27456;-51
2021/01/24 00:25:48;;;;;;;5.35;4.00;;;2.60;95.80;;;;;;5124297;27;27477;-55
2021/01/24 00:28:32;;;;;;;4.93;3.60;;;2.60;95.80;;;;;;5124475;27;28011;-51
2021/01/24 00:31:17;;;;;;;5.50;3.95;;;2.60;95.90;;;;;;5123714;27;27332;-52
2021/01/24 00:34:02;;;;;;;5.32;3.58;;;2.60;95.90;;;;;;5124513;27;27393;-53
2021/01/24 00:36:47;;;;;;;5.45;3.55;;;2.60;95.90;;;;;;5124433;27;27343;-51
2021/01/24 00:39:32;;;;;;;4.22;3.15;;;2.50;95.90;;;;;;5127005;27;27328;-51
2021/01/24 00:42:16;;;;;;;4.25;3.10;;;2.50;95.90;;;;;;5124249;27;27369;-50
2021/01/24 00:45:01;;;;;;;6.03;3.45;;;2.50;95.90;;;;;;5127342;27;27372;-53
2021/01/24 00:47:46;;;;;;;3.58;3.03;;;2.50;96.00;;;;;;5127382;27;27537;-51
2021/01/24 00:50:30;;;;;;;4.53;3.45;;;2.50;96.00;;;;;;5127362;27;27327;-53
2021/01/24 00:53:15;;;;;;;4.72;3.85;;;2.50;96.00;;;;;;5123603;27;27367;-51
2021/01/24 00:56:00;;;;;;;5.20;3.60;;;2.50;96.00;;;;;;5124356;27;27382;-51
2021/01/24 00:58:44;;;;;;;5.70;3.35;;;2.50;96.00;;;;;;5127347;27;27370;-52
2021/01/24 01:01:29;;;;;;;4.03;2.38;;;2.50;96.10;;;;;;5127579;27;27325;-54
2021/01/24 01:04:13;;;;;;;5.82;2.90;;;2.40;96.10;;;;;;5127393;27;27555;-55
2021/01/24 01:06:58;;;;;;;4.07;2.90;;;2.40;96.10;;;;;;5127738;27;27458;-53
2021/01/24 01:09:43;;;;;;;2.45;2.10;;;2.40;96.20;;;;;;5125557;27;27414;-56
2021/01/24 01:12:27;;;;;;;3.70;2.38;;;2.40;96.30;;;;;;5126834;27;27404;-55
2021/01/24 01:15:12;;;;;;;3.95;2.25;;;2.40;96.40;;;;;;5127279;27;27533;-57
2021/01/24 01:17:57;;;;;;;3.45;2.45;;;2.30;96.40;;;;;;5127035;27;27405;-58
2021/01/24 01:20:42;;;;;;;2.50;1.83;;;2.30;96.40;;;;;;5126984;27;27472;-57
2021/01/24 01:23:26;;;;;;;2.75;2.03;;;2.30;96.40;;;;;;5127133;27;27397;-59
2021/01/24 01:26:14;;;;;;;1.90;1.50;;;2.30;96.40;;;;;;5126894;27;27519;-59
2021/01/24 01:28:59;;;;;;;2.15;1.50;;;2.30;96.40;;;;;;5127144;27;27418;-59
2021/01/24 01:31:43;;;;;;;2.00;1.80;;;2.30;96.50;;;;;;5127163;27;27346;-59
2021/01/24 01:34:28;;;;;;;2.10;1.73;;;2.30;96.50;;;;;;5127005;27;27950;-58
2021/01/24 01:37:12;;;;;;;2.05;1.63;;;2.30;96.60;;;;;;5122910;27;27452;-58
2021/01/24 01:39:57;;;;;;;2.03;1.67;;;2.30;96.60;;;;;;5126445;27;27563;-58
2021/01/24 01:42:41;;;;;;;2.97;1.75;;;2.30;96.60;;;;;;5126589;27;27459;-58
2021/01/24 01:45:26;;;;;;;2.38;1.50;;;2.30;96.60;;;;;;5126331;27;27410;-58
2021/01/24 01:48:11;;;;;;;2.03;1.58;;;2.30;96.60;;;;;;5126777;27;27418;-59
2021/01/24 01:50:58;;;;;;;2.42;1.58;;;2.30;96.60;;;;;;5126872;27;27414;-58
2021/01/24 01:53:44;;;;;;;1.67;1.23;;;2.30;96.60;;;;;;5126936;27;27411;-58
2021/01/24 01:56:28;;;;;;;2.42;1.40;;;2.30;96.60;;;;;;5122380;27;27945;-59
2021/01/24 01:59:13;;;;;;;1.42;1.25;;;2.30;96.70;;;;;;5126342;27;27351;-59
2021/01/24 02:02:35;;;;;;;2.38;1.40;;;2.30;96.70;;;;;;5126649;27;27446;-59
2021/01/24 02:05:28;;;;;;;2.95;1.33;;;2.30;96.70;;;;;;5126004;27;27459;-60
2021/01/24 02:08:21;;;;;;;1.75;1.27;;;2.30;96.60;;;;;;5125503;27;27987;-60
2021/01/24 02:11:21;;;;;;;2.95;1.30;;;2.30;96.60;;;;;;5125706;27;27393;-59
2021/01/24 02:14:28;;;;;;;1.35;1.13;;;2.20;96.60;;;;;;5126184;27;27473;-58
2021/01/24 02:17:17;;;;;;;1.23;1.02;;;2.20;96.70;;;;;;5126202;27;27366;-55
2021/01/24 02:20:06;;;;;;;1.75;0.95;;;2.20;96.70;;;;;;5126281;27;27385;-53
2021/01/24 02:22:51;;;;;;;1.38;0.90;;;2.20;96.70;;;;;;5125980;27;27430;-54
2021/01/24 02:26:07;;;;;;;1.17;0.98;;;2.30;96.70;;;;;;5125275;27;27537;-56
2021/01/24 02:29:33;;;;;;;0.98;0.82;;;2.30;96.60;;;;;;5125166;27;27422;-56
2021/01/24 02:32:18;;;;;;;0.65;0.65;;;2.30;96.60;;;;;;5125189;27;27425;-57
2021/01/24 02:35:03;;;;;;;0.82;0.70;;;2.30;96.50;;;;;;5107643;27;27608;-57
2021/01/24 02:37:47;;;;;;;0.77;0.70;;;2.40;96.50;;;;;;5125017;27;27461;-58
2021/01/24 02:40:35;;;;;;;2.15;0.50;;;2.30;96.50;;;;;;5124975;27;27438;-62
2021/01/24 02:43:20;;;;;;;1.05;0.80;;;2.40;96.40;;;;;;5125914;27;27331;-58
2021/01/24 02:46:04;;;;;;;2.35;0.70;;;2.40;96.40;;;;;;5125165;27;27339;-58
2021/01/24 02:48:52;;;;;;;0.68;0.50;;;2.40;96.30;;;;;;5107304;27;27328;-58
2021/01/24 02:51:37;;;;;;;0.70;0.70;;;2.40;96.30;;;;;;5125854;27;27297;-58
2021/01/24 02:54:21;;;;;;;0.68;0.65;;;2.40;96.30;;;;;;5124991;27;27397;-58
2021/01/24 02:57:06;;;;;;;1.65;0.77;;;2.40;96.20;;;;;;5124987;27;27370;-59
2021/01/24 02:59:50;;;;;;;0.90;0.57;;;2.40;96.20;;;;;;5125476;27;27369;-59
2021/01/24 03:02:35;;;;;;;0.50;0.50;;;2.40;96.20;;;;;;5109195;27;27415;-58
2021/01/24 03:05:20;;;;;;;0.50;0.45;;;2.40;96.20;;;;;;5125037;27;27383;-58
2021/01/24 03:08:04;;;;;;;0.95;0.68;;;2.40;96.60;;;;;;5125591;27;27375;-58
2021/01/24 03:10:49;;;;;;;1.00;0.90;;;2.30;96.20;;;;;;5110183;27;27342;-58
2021/01/24 03:13:41;;;;;;;0.82;0.70;;;2.40;96.20;;;;;;5121923;27;27393;-57
2021/01/24 03:16:26;;;;;;;0.63;0.63;;;2.40;96.20;;;;;;5124412;27;27429;-53
2021/01/24 03:19:10;;;;;;;0.60;0.60;;;2.40;96.20;;;;;;5109886;27;27449;-56
2021/01/24 03:21:55;;;;;;;0.95;0.82;;;2.40;96.20;;;;;;5124403;27;27389;-57
2021/01/24 03:24:40;;;;;;;0.70;0.70;;;2.40;96.20;;;;;;5109973;27;27461;-53
2021/01/24 03:27:25;;;;;;;1.55;1.00;;;2.30;96.10;;;;;;5125275;27;27968;-55
2021/01/24 03:30:11;;;;;;;1.50;0.80;;;2.40;96.10;;;;;;5123965;27;27477;-57
2021/01/24 03:32:57;;;;;;;0.90;0.77;;;2.30;96.10;;;;;;5125077;27;26964;-55
2021/01/24 03:35:41;;;;;;;0.80;0.80;;;2.30;96.00;;;;;;5124962;27;27418;-54
2021/01/24 03:38:26;;;;;;;1.25;1.15;;;2.30;96.00;;;;;;5125173;27;27447;-55
2021/01/24 03:41:11;;;;;;;1.20;1.10;;;2.40;96.10;;;;;;5125116;27;27517;-53
2021/01/24 03:43:55;;;;;;;3.05;1.10;;;2.30;96.00;;;;;;5124850;27;27454;-54
2021/01/24 03:46:40;;;;;;;2.60;1.40;;;2.30;96.00;;;;;;5125126;27;27508;-54
2021/01/24 03:49:24;;;;;;;1.90;1.40;;;2.30;95.90;;;;;;5121424;27;27459;-51
2021/01/24 03:52:09;;;;;;;2.15;1.80;;;2.30;95.90;;;;;;5124903;27;27430;-53
2021/01/24 03:54:53;;;;;;;2.20;1.80;;;2.30;95.80;;;;;;5124947;27;27432;-55
2021/01/24 03:57:38;;;;;;;2.15;1.70;;;2.30;95.80;;;;;;5124650;27;27316;-53
2021/01/24 04:00:23;;;;;;;2.65;1.88;;;2.30;95.70;;;;;;5124587;27;27354;-50
2021/01/24 04:03:08;;;;;;;3.78;2.35;;;2.30;95.60;;;;;;5124864;27;27347;-51
2021/01/24 04:05:52;;;;;;;2.28;1.95;;;2.30;95.30;;;;;;5124208;27;27403;-53
2021/01/24 04:08:37;;;;;;;4.63;1.83;;;2.20;95.20;;;;;;5124502;27;27315;-50
2021/01/24 04:11:21;;;;;;;3.45;2.30;;;2.20;95.10;;;;;;5124477;27;27389;-54
2021/01/24 04:14:06;;;;;;;4.65;2.47;;;2.20;95.10;;;;;;5128147;27;27347;-53
2021/01/24 04:16:50;;;;;;;2.80;2.33;;;2.20;95.10;;;;;;5128121;27;27374;-52
2021/01/24 04:19:35;;;;;;;3.22;2.13;;;2.20;95.10;;;;;;5128326;27;27405;-54
2021/01/24 04:22:19;;;;;;;2.70;2.00;;;2.20;95.20;;;;;;5128175;27;27315;-55
2021/01/24 04:25:05;;;;;;;2.83;2.13;;;2.20;95.30;;;;;;5127287;27;27373;-56
2021/01/24 04:27:50;;;;;;;3.33;2.35;;;2.20;95.30;;;;;;5128143;27;27317;-52
2021/01/24 04:30:34;;;;;;;3.47;2.20;;;2.20;95.40;;;;;;5127781;27;27314;-51
2021/01/24 04:33:18;;;;;;;3.15;2.08;;;2.20;95.40;;;;;;5128038;27;27975;-55
2021/01/24 04:36:03;;;;;;;4.25;2.30;;;2.20;95.40;;;;;;5127958;27;27472;-56
2021/01/24 04:38:48;;;;;;;2.72;2.38;;;2.20;95.40;;;;;;5127840;27;27492;-54
2021/01/24 04:41:36;;;;;;;2.47;1.75;;;2.20;95.40;;;;;;5127929;27;27461;-53
2021/01/24 04:44:21;;;;;;;3.75;2.33;;;2.20;95.40;;;;;;5127460;27;27322;-53
2021/01/24 04:47:05;;;;;;;2.70;1.92;;;2.20;95.50;;;;;;5126795;27;27394;-52
2021/01/24 04:49:50;;;;;;;3.33;1.98;;;2.10;95.40;;;;;;5126804;27;27402;-56
2021/01/24 04:52:34;;;;;;;2.85;2.20;;;2.20;95.50;;;;;;5126440;27;27335;-48
2021/01/24 04:55:19;;;;;;;3.22;1.98;;;2.10;95.50;;;;;;5127403;27;27437;-56
2021/01/24 04:58:03;;;;;;;2.67;1.85;;;2.10;95.50;;;;;;5126869;27;27445;-56
2021/01/24 05:00:47;;;;;;;2.70;2.08;;;2.10;95.60;;;;;;5112419;27;27418;-55
2021/01/24 05:03:32;;;;;;;3.05;2.10;;;2.10;95.60;;;;;;5127581;27;27309;-55
2021/01/24 05:06:17;;;;;;;3.95;2.83;;;2.10;95.60;;;;;;5127492;27;27875;-53
2021/01/24 05:09:01;;;;;;;3.28;2.13;;;2.10;95.50;;;;;;5126400;27;27476;-52
2021/01/24 05:11:53;;;;;;;2.63;1.88;;;2.10;95.50;;;;;;5127221;27;27403;-55
2021/01/24 05:14:37;;;;;;;3.25;2.00;;;2.10;95.50;;;;;;5127425;27;27384;-53
2021/01/24 05:17:22;;;;;;;3.55;2.33;;;2.00;95.50;;;;;;5127039;27;27872;-55
2021/01/24 05:20:07;;;;;;;3.40;2.45;;;2.00;95.40;;;;;;5126099;27;27354;-55
2021/01/24 05:22:52;;;;;;;2.83;2.25;;;2.00;95.30;;;;;;5123277;27;27304;-55
2021/01/24 05:25:36;;;;;;;3.22;2.38;;;2.00;95.20;;;;;;5126518;27;27370;-56
2021/01/24 05:28:23;;;;;;;3.53;2.20;;;2.00;95.10;;;;;;5111842;27;27371;-55
2021/01/24 05:31:08;;;;;;;4.78;2.60;;;2.00;95.00;;;;;;5127155;27;27482;-55
2021/01/24 05:33:56;;;;;;;3.72;2.38;;;1.90;94.90;;;;;;5127133;27;27391;-55
2021/01/24 05:36:41;;;;;;;3.88;2.67;;;1.90;94.90;;;;;;5126742;27;27396;-56
2021/01/24 05:39:28;;;;;;;2.83;2.20;;;1.90;94.90;;;;;;5126919;27;27404;-54
2021/01/24 05:42:12;;;;;;;5.88;2.83;;;1.90;95.00;;;;;;5126675;27;27457;-52
2021/01/24 05:44:57;;;;;;;3.63;2.50;;;1.90;95.10;;;;;;5126761;27;27427;-52
2021/01/24 05:47:45;;;;;;;3.28;2.40;;;1.90;95.20;;;;;;5125752;27;27337;-55
2021/01/24 05:50:29;;;;;;;4.38;2.60;;;1.90;95.20;;;;;;5126512;27;27960;-52
2021/01/24 05:53:14;;;;;;;5.45;3.35;;;1.90;95.20;;;;;;5126492;27;27315;-52
2021/01/24 05:55:58;;;;;;;3.55;2.38;;;1.90;95.10;;;;;;5126060;27;27432;-53
2021/01/24 05:58:43;;;;;;;3.60;2.63;;;1.80;95.10;;;;;;5126443;27;27491;-51
2021/01/24 06:01:29;;;;;;;3.97;2.75;;;1.80;95.00;;;;;;5126657;27;27956;-49
2021/01/24 06:04:13;;;;;;;3.63;2.90;;;1.80;95.10;;;;;;5126480;27;27454;-51
2021/01/24 06:06:57;;;;;;;3.88;2.80;;;1.80;95.10;;;;;;5125872;27;27440;-50
2021/01/24 06:09:42;;;;;;;4.03;2.72;;;1.80;95.10;;;;;;5125467;27;27477;-50
2021/01/24 06:12:27;;;;;;;7.55;2.83;;;1.80;95.10;;;;;;5126497;27;27883;-50
2021/01/24 06:15:12;;;;;;;5.72;3.45;;;1.70;95.00;;;;;;5125907;27;27438;-50
2021/01/24 06:17:57;;;;;;;4.90;3.05;;;1.70;94.90;;;;;;5110936;27;27435;-50
2021/01/24 06:20:48;;;;;;;6.20;2.80;;;1.70;94.90;;;;;;5126068;27;27407;-45
2021/01/24 06:23:54;;;;;;;7.88;3.30;;;1.70;94.80;;;;;;5125956;27;27378;-49
2021/01/24 06:26:42;;;;;;;6.38;3.35;;;1.70;94.80;;;;;;5125452;27;27369;-49
2021/01/24 06:29:27;;;;;;;5.22;3.35;;;1.60;94.80;;;;;;5125937;27;27489;-49
2021/01/24 06:32:29;;;;;;;6.05;3.30;;;1.60;94.80;;;;;;5125095;27;27465;-48
2021/01/24 06:35:22;;;;;;;5.45;3.03;;;1.60;94.70;;;;;;5124974;27;27449;-49
2021/01/24 06:38:06;;;;;;;5.43;2.90;;;1.60;94.70;;;;;;5125789;27;27417;-48
2021/01/24 06:40:51;;;;;;;4.97;3.00;;;1.60;94.80;;;;;;5125704;27;28534;-50
2021/01/24 06:43:41;;;;;;;7.35;3.38;;;1.60;94.80;;;;;;5125956;27;27384;-50
2021/01/24 06:46:29;;;;;;;5.90;2.85;;;1.60;94.90;;;;;;5125654;27;27426;-47
2021/01/24 06:49:38;;;;;;;3.75;2.85;;;1.60;94.90;;;;;;5125916;27;27373;-47
2021/01/24 06:52:22;;;;;;;4.32;3.10;;;1.50;94.90;;;;;;5109706;27;27358;-48
2021/01/24 06:55:26;;;;;;;3.55;2.42;;;1.60;95.00;;;;;;5125898;27;27313;-50
2021/01/24 06:58:27;;;;;;;4.80;3.13;;;1.60;95.00;;;;;;5125432;27;27994;-49
2021/01/24 07:01:23;;;;;;;4.32;3.00;;;1.60;95.10;;;;;;5125335;27;27404;-49
2021/01/24 07:04:17;;;;;;;5.78;3.25;;;1.60;95.10;;;;;;5125579;27;27386;-49
2021/01/24 07:07:11;;;;;;;5.00;3.47;;;1.50;95.10;;;;;;5125614;27;27457;-49
2021/01/24 07:09:55;;;;;;;9.30;3.30;;;1.60;95.10;;;;;;5123930;27;27473;-48
2021/01/24 07:12:42;;;;;;;6.80;3.55;;;1.60;95.20;;;;;;5125181;27;27479;-48
2021/01/24 07:15:26;;;;;;;4.43;2.97;;;1.60;95.20;;;;;;5125277;27;27498;-49
2021/01/24 07:18:11;;;;;;;5.15;3.58;;;1.60;95.20;;;;;;5125441;27;27461;-48
2021/01/24 07:20:56;;;;;;;4.25;2.95;;;1.60;95.10;;;;;;5121805;27;27860;-51
2021/01/24 07:23:40;;;;;;;7.50;3.20;;;1.60;95.10;;;;;;5125091;27;27461;-50
2021/01/24 07:26:24;;;;;;;4.55;2.90;;;1.60;95.10;;;;;;5125103;27;27468;-49
2021/01/24 07:29:09;;;;;;;7.25;4.32;;;1.60;95.20;;;;;;5124606;27;27548;-49
2021/01/24 07:31:53;;;;;;;5.07;3.22;;;1.60;95.20;;;;;;5110042;27;27507;-47
2021/01/24 07:34:38;;;;;;;6.35;3.67;;;1.70;95.30;;;;;;5124884;27;27434;-47
2021/01/24 07:37:23;;;;;;;6.50;3.83;;;1.70;95.30;;;;;;5125258;27;27312;-50
2021/01/24 07:40:07;;;;;;;6.55;3.30;;;1.70;95.30;;;;;;5125192;27;27366;-48
2021/01/24 07:42:52;;;;;;;4.75;3.67;;;1.70;95.20;;;;;;5124851;27;27412;-49
2021/01/24 07:45:37;;;;;;;5.38;3.92;;;1.70;95.20;;;;;;5124114;27;27397;-49
2021/01/24 07:48:21;;;;;;;7.13;3.97;;;1.70;95.30;;;;;;5109394;27;27397;-48
2021/01/24 07:51:06;;;;;;;6.97;4.20;;;1.70;95.30;;;;;;5128784;27;27362;-50
2021/01/24 07:53:50;;;;;;;8.32;4.18;;;1.70;95.20;;;;;;5128413;27;27367;-48
2021/01/24 07:56:35;;;;;;;5.43;4.18;;;1.80;95.30;;;;;;5128643;27;27388;-44
2021/01/24 07:59:20;;;;;;;8.00;4.68;;;1.80;95.30;;;;;;5128433;27;27358;-50
2021/01/24 08:02:04;;;;;;;6.20;4.10;;;1.80;95.30;;;;;;5128130;27;26925;-51
2021/01/24 08:04:49;;;;;;;8.82;4.40;;;1.80;95.20;;;;;;5127576;27;27361;-47
2021/01/24 08:07:33;;;;;;;7.13;4.22;;;1.90;95.30;;;;;;5127744;27;27488;-50
2021/01/24 08:10:18;;;;;;;7.57;3.92;;;1.90;95.30;;;;;;5126980;27;26917;-49
2021/01/24 08:13:02;;;;;;;7.05;3.47;;;1.90;95.30;;;;;;5127357;27;27456;-51
2021/01/24 08:15:47;;;;;;;7.30;4.25;;;1.90;95.20;;;;;;5095098;27;27969;-50
2021/01/24 08:18:32;;;;;;;5.03;4.20;;;1.90;95.20;;;;;;5112972;27;27610;-51
2021/01/24 08:21:17;;;;;;;6.43;4.20;;;2.00;95.20;;;;;;5112824;27;27473;-49
2021/01/24 08:24:02;;;;;;;8.70;4.25;;;2.00;95.10;;;;;;5127074;27;27478;-50
2021/01/24 08:26:47;;;;;;;9.98;4.10;;;2.00;95.10;;;;;;5127121;27;27432;-49
2021/01/24 08:29:35;;;;;;;7.85;4.07;;;2.10;95.10;;;;;;5127726;27;27472;-49
2021/01/24 08:32:20;;;;;;;8.40;4.50;;;2.10;95.00;;;;;;5113100;27;27324;-52
2021/01/24 08:35:05;;;;;;;7.20;4.45;;;2.20;94.90;;;;;;5128067;27;27378;-50
2021/01/24 08:37:50;;;;;;;9.05;4.47;;;2.20;94.80;;;;;;5127950;27;27390;-53
2021/01/24 08:40:35;;;;;;;6.32;3.50;;;2.20;94.80;;;;;;5126916;27;27362;-45
2021/01/24 08:43:20;;;;;;;7.30;4.70;;;2.30;94.90;;;;;;5127657;27;27388;-47
2021/01/24 08:46:21;;;;;;;8.45;4.32;;;2.30;94.90;;;;;;5127554;27;27324;-49
2021/01/24 08:49:10;;;;;;;8.18;4.20;;;2.40;94.80;;;;;;5127461;27;27415;-51
2021/01/24 08:51:57;;;;;;;7.90;4.15;;;2.40;94.90;;;;;;5127462;27;27487;-50
2021/01/24 08:54:41;;;;;;;6.05;3.72;;;2.40;94.90;;;;;;5127826;27;27370;-50
2021/01/24 08:57:30;;;;;;;10.80;5.00;;;2.40;94.90;;;;;;5111594;27;27386;-49
2021/01/24 09:00:16;;;;;;;6.70;3.55;;;2.50;94.90;;;;;;5126591;27;27451;-50
2021/01/24 09:03:01;;;;;;;6.55;3.38;;;2.60;95.20;;;;;;5127481;27;27404;-52
2021/01/24 09:05:45;;;;;;;8.07;3.72;;;2.70;94.60;;;;;;5127324;27;27481;-51
2021/01/24 09:08:29;;;;;;;6.10;3.97;;;2.80;94.40;;;;;;5127044;27;27063;-51
2021/01/24 09:11:14;;;;;;;6.13;3.75;;;2.90;94.20;;;;;;5127349;27;27426;-52
2021/01/24 09:13:58;;;;;;;7.50;3.53;;;2.90;94.30;;;;;;5126489;27;27616;-50
2021/01/24 09:16:43;;;;;;;7.28;3.83;;;2.90;94.00;;;;;;5127403;27;27447;-50
2021/01/24 09:19:28;;;;;;;7.03;3.47;;;3.00;93.80;;;;;;5127015;27;26927;-49
2021/01/24 09:22:13;;;;;;;6.15;3.97;;;3.00;93.60;;;;;;5126994;27;27879;-53
2021/01/24 09:24:58;;;;;;;5.18;3.28;;;3.00;93.60;;;;;;5125096;27;27428;-51
2021/01/24 09:27:42;;;;;;;5.95;3.05;;;3.10;93.30;;;;;;5127295;27;27365;-51
2021/01/24 09:30:27;;;;;;;5.88;3.22;;;3.20;93.30;;;;;;5127203;27;27398;-53
2021/01/24 09:33:12;;;;;;;5.22;3.40;;;3.30;93.10;;;;;;5127079;27;28004;-51
2021/01/24 09:35:56;;;;;;;3.78;2.53;;;3.40;93.00;;;;;;5126995;27;27373;-53
2021/01/24 09:38:41;;;;;;;3.47;2.50;;;3.50;92.90;;;;;;5126993;27;27365;-53
2021/01/24 09:41:26;;;;;;;5.88;3.30;;;3.50;92.80;;;;;;5126687;27;27397;-53
2021/01/24 09:44:10;;;;;;;5.28;3.05;;;3.50;92.60;;;;;;5126809;27;27884;-51
2021/01/24 09:46:54;;;;;;;6.78;3.40;;;3.60;92.60;;;;;;5126770;27;27352;-50
2021/01/24 09:49:39;;;;;;;5.22;2.78;;;3.60;92.50;;;;;;5126853;27;27374;-52
2021/01/24 09:52:26;;;;;;;4.38;2.63;;;3.70;92.50;;;;;;5126255;27;27444;-50
2021/01/24 09:55:11;;;;;;;4.18;3.03;;;3.60;92.40;;;;;;5124784;27;27526;-51
2021/01/24 09:57:55;;;;;;;4.57;3.10;;;3.60;92.40;;;;;;5126378;27;27385;-50
2021/01/24 10:00:40;;;;;;;5.28;3.33;;;3.70;92.40;;;;;;5126361;27;27331;-52
2021/01/24 10:03:24;;;;;;;4.13;2.92;;;3.70;92.40;;;;;;5126240;27;27397;-52
2021/01/24 10:06:09;;;;;;;4.85;2.88;;;3.80;92.30;;;;;;5126118;27;27354;-50
2021/01/24 10:08:54;;;;;;;4.72;3.28;;;3.80;92.20;;;;;;5125805;27;27429;-51
2021/01/24 10:11:38;;;;;;;3.95;2.80;;;3.70;92.20;;;;;;5125951;27;27452;-50
2021/01/24 10:14:23;;;;;;;4.50;2.55;;;3.70;92.20;;;;;;5126352;27;27390;-49
2021/01/24 10:17:08;;;;;;;3.17;2.35;;;3.70;92.20;;;;;;5125457;27;27587;-50
2021/01/24 10:19:52;;;;;;;3.75;2.40;;;3.70;92.00;;;;;;5125860;27;27467;-45
2021/01/24 10:22:38;;;;;;;2.72;2.20;;;3.70;92.00;;;;;;5126400;27;27391;-50
2021/01/24 10:25:22;;;;;;;5.35;2.58;;;3.70;91.90;;;;;;5122698;27;27414;-50
2021/01/24 10:28:06;;;;;;;4.85;2.30;;;3.70;91.80;;;;;;5125919;27;27979;-53
2021/01/24 10:30:52;;;;;;;3.28;2.20;;;3.70;91.70;;;;;;5126152;27;27486;-49
2021/01/24 10:33:36;;;;;;;3.30;2.22;;;3.80;91.70;;;;;;5125922;27;27495;-49
2021/01/24 10:36:21;;;;;;;3.40;2.17;;;4.00;91.40;;;;;;5126136;27;27461;-50
2021/01/24 10:39:05;;;;;;;5.70;2.20;;;4.10;91.40;;;;;;5126004;27;27863;-51
2021/01/24 10:41:50;;;;;;;4.90;2.30;;;4.20;91.30;;;;;;5125952;27;27504;-51
2021/01/24 10:44:35;;;;;;;2.20;1.80;;;4.20;91.10;;;;;;5125884;27;27453;-51
2021/01/24 10:47:19;;;;;;;4.43;2.40;;;4.40;90.80;;;;;;5125195;27;27457;-50
2021/01/24 10:50:06;;;;;;;3.00;2.03;;;4.60;90.50;;;;;;5126001;27;27372;-51
2021/01/24 10:52:50;;;;;;;4.07;1.95;;;4.70;90.30;;;;;;5122524;27;27430;-51
2021/01/24 10:55:35;;;;;;;4.60;2.22;;;4.80;89.90;;;;;;5125845;27;27496;-52
2021/01/24 10:58:20;;;;;;;7.25;2.45;;;4.90;89.50;;;;;;5125384;27;27426;-52
2021/01/24 11:01:04;;;;;;;4.43;2.13;;;4.90;89.20;;;;;;5125613;27;27496;-53
2021/01/24 11:03:49;;;;;;;3.30;1.95;;;4.90;89.00;;;;;;5122075;27;27437;-53
2021/01/24 11:06:33;;;;;;;2.47;1.52;;;5.00;88.60;;;;;;5125519;27;27323;-55
2021/01/24 11:09:18;;;;;;;7.28;2.13;;;5.00;88.20;;;;;;5124567;27;27389;-56
2021/01/24 11:12:03;;;;;;;4.93;1.80;;;5.10;88.00;;;;;;5122195;27;27405;-57
2021/01/24 11:14:48;;;;;;;4.55;2.13;;;5.00;87.90;;;;;;5124935;27;27565;-54
2021/01/24 11:17:33;;;;;;;4.57;1.70;;;5.00;88.00;;;;;;5125552;27;27396;-57
2021/01/24 11:20:18;;;;;;;4.07;1.77;;;4.90;88.20;;;;;;5125488;27;27328;-57
2021/01/24 11:23:02;;;;;;;4.18;2.03;;;4.80;88.20;;;;;;5124098;27;27368;-57
2021/01/24 11:25:47;;;;;;;5.00;2.10;;;4.70;88.30;;;;;;5124219;27;27358;-58
2021/01/24 11:28:31;;;;;;;6.05;2.00;;;4.60;88.60;;;;;;5125337;27;27388;-58
2021/01/24 11:31:16;;;;;;;1.92;1.50;;;4.60;88.50;;;;;;5125107;27;27339;-57
2021/01/24 11:34:00;;;;;;;3.15;1.88;;;4.50;88.50;;;;;;5120940;27;27855;-58
2021/01/24 11:36:45;;;;;;;4.95;1.75;;;4.50;88.60;;;;;;5125181;27;27335;-58
2021/01/24 11:39:30;;;;;;;2.72;1.80;;;4.50;88.40;;;;;;5124950;27;27348;-58
2021/01/24 11:42:14;;;;;;;3.88;1.67;;;4.50;88.60;;;;;;5121917;27;27373;-58
2021/01/24 11:44:59;;;;;;;4.80;2.80;;;4.50;88.60;;;;;;5125058;27;27872;-58
2021/01/24 11:47:43;;;;;;;5.82;2.97;;;4.50;88.40;;;;;;5125093;27;27531;-53
2021/01/24 11:50:28;;;;;;;7.10;3.80;;;4.50;88.10;;;;;;5125158;27;27410;-58
2021/01/24 11:53:12;;;;;;;8.98;4.93;;;4.50;88.20;;;;;;5125102;27;27443;-57
2021/01/24 11:55:57;;;;;;;9.75;4.25;;;4.50;88.00;;;;;;5124735;27;27426;-58
2021/01/24 11:58:42;;;;;;;9.23;4.95;;;4.60;87.90;;;;;;5124640;27;27502;-57
2021/01/24 12:01:26;;;;;;;11.18;5.20;;;4.70;87.20;;;;;;5124736;27;27473;-59
2021/01/24 12:04:11;;;;;;;10.18;4.82;;;4.90;86.30;;;;;;5121458;27;27441;-58
2021/01/24 12:06:55;;;;;;;10.07;4.50;;;5.10;85.40;;;;;;5124173;27;28050;-59
2021/01/24 12:09:40;;;;;;;8.32;4.15;;;5.20;85.00;;;;;;5122188;27;27500;-59
2021/01/24 12:12:24;;;;;;;7.22;4.15;;;5.40;84.30;;;;;;5124140;27;27511;-58
2021/01/24 12:15:09;;;;;;;7.72;3.72;;;5.50;83.90;;;;;;5124646;27;27336;-58
2021/01/24 12:17:57;;;;;;;9.07;3.83;;;5.70;83.60;;;;;;5124430;27;27362;-50
2021/01/24 12:20:44;;;;;;;4.90;3.33;;;5.90;83.20;;;;;;5124605;27;27327;-56
2021/01/24 12:23:29;;;;;;;6.03;3.20;;;6.10;82.40;;;;;;5124809;27;27410;-51
2021/01/24 12:26:13;;;;;;;4.00;2.85;;;6.50;80.90;;;;;;5123942;27;27475;-58
2021/01/24 12:28:58;;;;;;;4.95;2.50;;;6.80;79.90;;;;;;5124553;27;27455;-58
2021/01/24 12:31:42;;;;;;;6.13;2.40;;;7.10;78.00;;;;;;5124229;27;27467;-58
2021/01/24 12:34:27;;;;;;;4.00;2.33;;;7.40;77.10;;;;;;5126877;27;27471;-59
2021/01/24 12:37:11;;;;;;;3.95;2.22;;;7.60;76.60;;;;;;5127611;27;27383;-59
2021/01/24 12:39:56;;;;;;;3.17;1.95;;;7.90;75.40;;;;;;5123865;27;27456;-59
2021/01/24 12:42:40;;;;;;;3.97;2.38;;;8.30;74.80;;;;;;5127832;27;27444;-59
2021/01/24 12:45:25;;;;;;;3.55;1.98;;;8.70;73.40;;;;;;5127291;27;27466;-58
2021/01/24 12:48:10;;;;;;;2.67;2.00;;;9.20;72.60;;;;;;5127584;27;27464;-55
2021/01/24 12:50:54;;;;;;;2.88;1.63;;;9.70;71.90;;;;;;5127941;27;27964;-53
2021/01/24 12:53:38;;;;;;;2.33;1.42;;;10.10;70.70;;;;;;5127652;27;27374;-52
2021/01/24 12:56:23;;;;;;;4.68;1.60;;;10.50;69.70;;;;;;5127376;27;27343;-51
2021/01/24 12:59:07;;;;;;;3.42;1.60;;;10.90;69.40;;;;;;5127683;27;27389;-46
2021/01/24 13:01:55;;;;;;;3.97;1.83;;;11.20;69.50;;;;;;5126225;27;27493;-49
2021/01/24 13:04:40;;;;;;;1.85;1.45;;;11.60;69.20;;;;;;5126905;27;27407;-46
2021/01/24 13:07:25;;;;;;;2.97;1.52;;;11.90;68.80;;;;;;5124168;27;27456;-45
2021/01/24 13:10:10;;;;;;;2.50;1.83;;;12.10;68.20;;;;;;5126544;27;27598;-46
2021/01/24 13:12:54;;;;;;;4.20;1.90;;;12.40;67.50;;;;;;5127401;27;27402;-46
2021/01/24 13:15:39;;;;;;;2.35;1.40;;;12.60;67.30;;;;;;5127113;27;27381;-48
2021/01/24 13:18:23;;;;;;;3.83;1.63;;;12.90;66.30;;;;;;5127089;27;27318;-44
2021/01/24 13:21:08;;;;;;;3.38;1.50;;;12.80;65.70;;;;;;5127308;27;27314;-46
2021/01/24 13:23:53;;;;;;;3.45;1.70;;;12.80;65.30;;;;;;5126931;27;27405;-45
2021/01/24 13:26:38;;;;;;;2.15;1.48;;;12.70;65.90;;;;;;5127223;27;27653;-46
2021/01/24 13:29:22;;;;;;;2.78;1.65;;;12.70;66.30;;;;;;5126741;27;27401;-48
2021/01/24 13:32:07;;;;;;;2.47;1.63;;;12.80;66.60;;;;;;5126941;27;27389;-46
2021/01/24 13:34:51;;;;;;;2.65;1.95;;;12.80;66.10;;;;;;5126809;27;27335;-46
2021/01/24 13:37:36;;;;;;;2.53;1.73;;;12.70;65.90;;;;;;5126743;27;27369;-47
2021/01/24 13:40:20;;;;;;;3.47;2.38;;;12.60;66.30;;;;;;5126733;27;27406;-48
2021/01/24 13:43:05;;;;;;;3.17;1.58;;;12.40;66.80;;;;;;5126661;27;27383;-46
2021/01/24 13:45:49;;;;;;;2.83;1.85;;;12.20;67.40;;;;;;5125992;27;27531;-45
2021/01/24 13:48:33;;;;;;;3.47;1.65;;;11.90;68.40;;;;;;5126764;27;27626;-46
2021/01/24 13:51:18;;;;;;;3.80;2.13;;;11.70;68.80;;;;;;5126762;27;27398;-45
2021/01/24 13:54:03;;;;;;;4.20;1.98;;;11.70;69.30;;;;;;5126635;27;27394;-46
2021/01/24 13:56:47;;;;;;;4.57;2.10;;;11.50;69.10;;;;;;5126137;27;27422;-42
2021/01/24 13:59:32;;;;;;;3.30;1.80;;;11.40;69.30;;;;;;5126399;27;27467;-47
2021/01/24 14:02:17;;;;;;;4.85;2.20;;;11.30;69.40;;;;;;5125625;27;27492;-48
2021/01/24 14:05:01;;;;;;;5.88;2.20;;;11.20;66.60;;;;;;5126367;27;27439;-46
2021/01/24 14:07:45;;;;;;;5.03;2.75;;;11.00;64.90;;;;;;5126554;27;27472;-47
2021/01/24 14:10:30;;;;;;;3.55;2.10;;;10.70;66.60;;;;;;5124957;27;27413;-47
2021/01/24 14:13:15;;;;;;;2.97;1.77;;;10.50;67.10;;;;;;5126529;27;27443;-48
2021/01/24 14:15:59;;;;;;;4.63;2.10;;;10.40;68.30;;;;;;5125394;27;27422;-47
2021/01/24 14:18:45;;;;;;;2.78;1.58;;;10.30;68.60;;;;;;5126276;27;27393;-49
2021/01/24 14:21:29;;;;;;;2.50;1.85;;;10.10;69.50;;;;;;5126200;27;27525;-46
2021/01/24 14:24:14;;;;;;;4.45;1.60;;;9.80;69.90;;;;;;5125489;27;27709;-45
2021/01/24 14:26:58;;;;;;;3.97;1.65;;;9.60;70.50;;;;;;5126005;27;27373;-46
2021/01/24 14:29:43;;;;;;;3.50;1.95;;;9.40;71.40;;;;;;5125840;27;27984;-46
2021/01/24 14:32:27;;;;;;;2.78;1.67;;;9.20;72.20;;;;;;5125811;27;27398;-46